createdAt,value
2022-10-01T00:04:37.873Z,9.00
2022-10-01T00:09:40.999Z,9.95
2022-10-01T00:14:44.749Z,9.33
2022-10-01T00:19:47.593Z,9.10
2022-10-01T00:24:50.289Z,9.40
2022-10-01T00:29:54.169Z,9.47
2022-10-01T00:34:56.909Z,9.20
2022-10-01T00:39:59.817Z,10.90
2022-10-01T00:45:02.550Z,9.63
2022-10-01T00:50:22.754Z,8.90
2022-10-01T00:55:38.075Z,9.77
2022-10-01T01:00:42.912Z,9.88
2022-10-01T01:05:47.974Z,10.00
2022-10-01T01:11:14.306Z,8.80
2022-10-01T01:16:34.204Z,9.18
2022-10-01T01:21:42.820Z,8.47
2022-10-01T01:27:17.564Z,9.32
2022-10-01T01:32:32.992Z,9.23
2022-10-01T01:37:41.361Z,8.85
2022-10-01T01:42:46.854Z,9.05
2022-10-01T01:47:50.584Z,8.17
2022-10-01T01:52:54.652Z,8.10
2022-10-01T01:57:58.094Z,9.13
2022-10-01T02:03:00.857Z,8.80
2022-10-01T02:08:22.315Z,9.00
2022-10-01T02:13:31.023Z,8.50
2022-10-01T02:19:02.205Z,7.38
2022-10-01T02:24:14.581Z,7.50
2022-10-01T02:29:21.503Z,7.28
2022-10-01T02:34:34.058Z,6.97
2022-10-01T02:39:41.138Z,8.20
2022-10-01T02:44:45.787Z,8.18
2022-10-01T02:49:49.898Z,7.90
2022-10-01T02:55:19.644Z,8.15
2022-10-01T03:00:22.337Z,8.23
2022-10-01T03:05:25.151Z,8.00
2022-10-01T03:10:27.807Z,7.70
2022-10-01T03:15:30.533Z,7.60
2022-10-01T03:20:33.234Z,8.20
2022-10-01T03:25:36.617Z,8.57
2022-10-01T03:30:39.329Z,7.57
2022-10-01T03:35:42.078Z,9.15
2022-10-01T03:40:44.914Z,8.03
2022-10-01T03:45:48.075Z,8.48
2022-10-01T03:50:58.808Z,8.32
2022-10-01T03:56:01.767Z,8.50
2022-10-01T04:01:04.649Z,7.97
2022-10-01T04:06:07.818Z,8.33
2022-10-01T04:11:10.730Z,8.07
2022-10-01T04:16:13.747Z,8.75
2022-10-01T04:21:16.684Z,8.20
2022-10-01T04:26:19.739Z,7.90
2022-10-01T04:31:25.165Z,9.00
2022-10-01T04:36:28.330Z,9.07
2022-10-01T04:41:32.207Z,8.32
2022-10-01T04:46:35.177Z,8.87
2022-10-01T04:51:37.949Z,9.10
2022-10-01T04:56:40.673Z,9.00
2022-10-01T05:01:43.472Z,10.63
2022-10-01T05:06:46.278Z,10.63
2022-10-01T05:11:52.328Z,13.50
2022-10-01T05:16:55.068Z,14.95
2022-10-01T05:21:57.843Z,15.37
2022-10-01T05:27:00.567Z,15.82
2022-10-01T05:32:03.397Z,15.02
2022-10-01T05:37:07.278Z,14.83
2022-10-01T05:42:10.108Z,16.52
2022-10-01T05:47:16.389Z,16.47
2022-10-01T05:52:19.222Z,15.25
2022-10-01T05:57:21.928Z,15.38
2022-10-01T06:02:24.783Z,14.20
2022-10-01T06:07:32.098Z,14.05
2022-10-01T06:12:34.987Z,13.93
2022-10-01T06:17:44.060Z,13.93
2022-10-01T06:22:55.560Z,13.57
2022-10-01T06:28:00.146Z,14.50
2022-10-01T06:33:10.574Z,14.55
2022-10-01T06:38:13.818Z,14.47
2022-10-01T06:43:16.588Z,14.50
2022-10-01T06:48:20.658Z,13.75
2022-10-01T06:53:23.497Z,13.20
2022-10-01T06:58:29.149Z,11.88
2022-10-01T07:03:32.134Z,12.80
2022-10-01T07:08:34.942Z,11.82
2022-10-01T07:13:37.719Z,13.07
2022-10-01T07:18:41.151Z,12.60
2022-10-01T07:23:43.931Z,11.35
2022-10-01T07:28:46.970Z,11.00
2022-10-01T07:33:50.259Z,11.15
2022-10-01T07:38:53.233Z,12.50
2022-10-01T07:43:56.366Z,11.33
2022-10-01T07:48:59.079Z,11.05
2022-10-01T07:54:03.142Z,10.47
2022-10-01T07:59:06.035Z,9.90
2022-10-01T08:04:31.654Z,10.07
2022-10-01T08:09:35.168Z,11.00
2022-10-01T08:14:38.118Z,11.30
2022-10-01T08:19:41.008Z,11.80
2022-10-01T08:24:44.000Z,11.20
2022-10-01T08:29:46.819Z,10.15
2022-10-01T08:34:54.511Z,11.23
2022-10-01T08:39:59.277Z,9.38
2022-10-01T08:45:06.975Z,9.37
2022-10-01T08:50:20.005Z,8.82
2022-10-01T08:55:27.758Z,10.00
2022-10-01T09:00:32.958Z,9.53
2022-10-01T09:05:51.573Z,10.00
2022-10-01T09:11:01.078Z,8.73
2022-10-01T09:16:10.236Z,9.25
2022-10-01T09:21:21.701Z,9.60
2022-10-01T09:26:25.850Z,10.20
2022-10-01T09:31:41.532Z,10.93
2022-10-01T09:37:15.011Z,11.47
2022-10-01T09:42:18.688Z,10.15
2022-10-01T09:47:25.953Z,9.82
2022-10-01T09:52:33.769Z,9.23
2022-10-01T09:57:46.777Z,10.15
2022-10-01T10:02:51.671Z,8.80
2022-10-01T10:08:16.958Z,9.00
2022-10-01T10:13:42.257Z,8.85
2022-10-01T10:18:52.401Z,8.40
2022-10-01T10:23:59.508Z,9.73
2022-10-01T10:29:03.709Z,9.77
2022-10-01T10:34:16.079Z,10.48
2022-10-01T10:39:22.498Z,11.45
2022-10-01T10:44:35.445Z,10.03
2022-10-01T10:50:03.304Z,10.23
2022-10-01T10:55:21.988Z,12.60
2022-10-01T11:00:26.695Z,12.18
2022-10-01T11:05:33.002Z,13.05
2022-10-01T11:10:57.177Z,11.23
2022-10-01T11:16:49.350Z,10.60
2022-10-01T11:22:10.960Z,11.57
2022-10-01T11:27:37.908Z,17.15
2022-10-01T11:32:52.439Z,13.32
2022-10-01T11:38:13.579Z,9.80
2022-10-01T11:43:31.997Z,9.50
2022-10-01T11:48:41.270Z,10.47
2022-10-01T11:53:51.909Z,10.95
2022-10-01T11:59:02.753Z,10.02
2022-10-01T12:04:20.364Z,11.97
2022-10-01T12:09:35.413Z,10.52
2022-10-01T12:15:06.198Z,15.07
2022-10-01T12:20:43.699Z,14.15
2022-10-01T12:26:18.670Z,9.63
2022-10-01T12:31:59.450Z,7.73
2022-10-01T12:37:33.675Z,8.13
2022-10-01T12:43:09.489Z,8.20
2022-10-01T12:48:38.198Z,9.18
2022-10-01T12:54:01.349Z,8.20
2022-10-01T12:59:26.983Z,9.60
2022-10-01T13:05:17.108Z,8.80
2022-10-01T13:10:32.878Z,11.43
2022-10-01T13:15:43.166Z,11.45
2022-10-01T13:21:30.713Z,11.25
2022-10-01T13:26:46.440Z,10.60
2022-10-01T13:32:02.819Z,9.60
2022-10-01T13:37:20.014Z,11.13
2022-10-01T13:42:28.178Z,10.30
2022-10-01T13:47:32.542Z,10.23
2022-10-01T13:52:35.997Z,9.53
2022-10-01T13:57:39.943Z,12.20
2022-10-01T14:03:04.292Z,15.87
2022-10-01T14:08:50.392Z,9.82
2022-10-01T14:14:11.590Z,9.73
2022-10-01T14:19:24.514Z,10.80
2022-10-01T14:24:54.629Z,10.85
2022-10-01T14:30:11.252Z,11.37
2022-10-01T14:35:21.033Z,11.73
2022-10-01T14:40:25.133Z,9.90
2022-10-01T14:45:29.151Z,12.47
2022-10-01T14:50:35.493Z,17.55
2022-10-01T14:55:39.240Z,19.03
2022-10-01T15:00:51.026Z,15.88
2022-10-01T15:06:04.213Z,19.48
2022-10-01T15:11:27.539Z,18.17
2022-10-01T15:16:33.594Z,13.40
2022-10-01T15:21:45.629Z,11.43
2022-10-01T15:26:50.019Z,11.35
2022-10-01T15:31:55.084Z,11.98
2022-10-01T15:37:00.283Z,12.17
2022-10-01T15:42:28.634Z,13.07
2022-10-01T15:47:36.534Z,14.07
2022-10-01T15:52:54.668Z,14.73
2022-10-01T15:58:30.660Z,14.77
2022-10-01T16:03:39.150Z,14.03
2022-10-01T16:09:06.700Z,13.57
2022-10-01T16:14:34.398Z,13.10
2022-10-01T16:19:37.323Z,13.05
2022-10-01T16:24:46.220Z,12.30
2022-10-01T16:30:05.440Z,12.53
2022-10-01T16:35:23.438Z,14.18
2022-10-01T16:40:32.372Z,14.80
2022-10-01T16:45:40.790Z,15.50
2022-10-01T16:50:46.793Z,16.17
2022-10-01T16:55:50.252Z,15.40
2022-10-01T17:00:53.354Z,13.40
2022-10-01T17:05:56.588Z,14.53
2022-10-01T17:11:03.685Z,14.93
2022-10-01T17:16:06.968Z,14.20
2022-10-01T17:21:10.171Z,14.27
2022-10-01T17:26:12.989Z,13.88
2022-10-01T17:31:18.012Z,13.20
2022-10-01T17:36:22.451Z,12.80
2022-10-01T17:41:25.742Z,13.57
2022-10-01T17:46:31.064Z,12.43
2022-10-01T17:51:33.934Z,12.48
2022-10-01T17:56:38.520Z,12.67
2022-10-01T18:01:41.859Z,13.98
2022-10-01T18:06:44.883Z,14.00
2022-10-01T18:11:48.683Z,14.67
2022-10-01T18:16:51.962Z,11.30
2022-10-01T18:21:55.057Z,8.43
2022-10-01T18:26:57.754Z,6.57
2022-10-01T18:32:14.474Z,3.92
2022-10-01T18:37:46.763Z,6.03
2022-10-01T18:43:04.644Z,5.47
2022-10-01T18:48:44.365Z,4.50
2022-10-01T18:53:58.883Z,3.60
2022-10-01T18:59:19.812Z,4.13
2022-10-01T19:04:41.207Z,4.13
2022-10-01T19:10:19.553Z,2.85
2022-10-01T19:15:51.558Z,1.70
2022-10-01T19:21:08.421Z,0.95
2022-10-01T19:26:15.844Z,1.65
2022-10-01T19:31:46.836Z,1.60
2022-10-01T19:37:00.092Z,1.80
2022-10-01T19:42:08.642Z,1.90
2022-10-01T19:47:36.149Z,1.38
2022-10-01T19:52:41.645Z,1.88
2022-10-01T19:57:45.382Z,1.97
2022-10-01T20:03:11.569Z,2.08
2022-10-01T20:08:34.442Z,1.13
2022-10-01T20:13:47.251Z,1.50
2022-10-01T20:19:05.566Z,2.05
2022-10-01T20:24:16.074Z,1.80
2022-10-01T20:29:51.187Z,2.25
2022-10-01T20:35:26.711Z,2.00
2022-10-01T20:40:37.524Z,2.17
2022-10-01T20:45:41.568Z,2.20
2022-10-01T20:50:48.081Z,2.67
2022-10-01T20:56:01.780Z,2.35
2022-10-01T21:01:20.912Z,2.40
2022-10-01T21:06:37.343Z,2.65
2022-10-01T21:11:53.183Z,2.90
2022-10-01T21:17:17.534Z,3.07
2022-10-01T21:22:39.087Z,3.08
2022-10-01T21:27:53.820Z,2.30
2022-10-01T21:33:14.442Z,3.03
2022-10-01T21:38:35.761Z,1.90
2022-10-01T21:44:16.873Z,2.30
2022-10-01T21:49:38.439Z,2.72
2022-10-01T21:54:44.863Z,2.27
2022-10-01T21:59:59.077Z,2.13
2022-10-01T22:05:23.755Z,2.30
2022-10-01T22:10:43.452Z,1.90
2022-10-01T22:15:50.141Z,2.17
2022-10-01T22:20:54.994Z,2.17
2022-10-01T22:26:02.013Z,1.77
2022-10-01T22:31:09.155Z,1.98
2022-10-01T22:36:36.752Z,1.80
2022-10-01T22:41:47.699Z,2.03
2022-10-01T22:47:06.365Z,2.03
2022-10-01T22:52:33.440Z,2.08
2022-10-01T22:57:56.449Z,1.90
2022-10-01T23:03:37.231Z,1.80
2022-10-01T23:08:46.337Z,1.70
2022-10-01T23:14:07.623Z,1.77
2022-10-01T23:19:35.933Z,1.88
2022-10-01T23:25:06.381Z,1.80
2022-10-01T23:30:14.413Z,1.77
2022-10-01T23:35:22.632Z,1.58
2022-10-01T23:40:33.529Z,1.53
2022-10-01T23:45:48.604Z,1.75
2022-10-01T23:51:08.056Z,1.23
2022-10-01T23:56:41.144Z,1.70
